Time;durP1;ratioP1;P1;durP2;ratioP2;P2;SDS_P1;SDS_P2;PMS_P1;PMS_P2;Temp;Humidity;BMP_temperature;BMP_pressure;BME280_temperature;BME280_humidity;BME280_pressure;Samples;Min_cycle;Max_cycle;Signal;HPM_P1;HPM_P2
2022/04/15 00:02:10;;;;;;;;;;;;;;;29.72;21.55;101302.50;5020990;28;1057;-39
2022/04/15 00:04:35;;;;;;;;;;;;;;;29.50;21.64;101309.66;5019419;28;881;-39
2022/04/15 00:07:01;;;;;;;;;;;;;;;28.92;22.60;101305.59;5016191;28;908;-36
2022/04/15 00:09:26;;;;;;;;;;;;;;;28.64;22.72;101304.31;5017396;28;799;-35
2022/04/15 00:11:53;;;;;;;;;;;;;;;28.50;22.94;101308.59;5017623;28;741;-36
2022/04/15 00:14:18;;;;;;;;;;;;;;;28.33;23.07;101307.84;5017106;28;821;-39
2022/04/15 00:16:44;;;;;;;;;;;;;;;28.26;23.25;101302.28;5018432;28;1022;-39
2022/04/15 00:19:10;;;;;;;;;;;;;;;28.09;23.28;101293.44;5021726;28;1898;-38
2022/04/15 00:21:35;;;;;;;;;;;;;;;28.30;23.46;101297.34;5017035;28;885;-39
2022/04/15 00:24:00;;;;;;;;;;;;;;;28.96;22.51;101296.09;5017488;28;750;-38
2022/04/15 00:26:26;;;;;;;;;;;;;;;29.25;22.25;101290.94;5018412;28;975;-38
2022/04/15 00:28:52;;;;;;;;;;;;;;;29.40;21.89;101297.22;5017056;28;842;-38
2022/04/15 00:31:17;;;;;;;;;;;;;;;29.89;21.39;101288.75;5024635;28;853;-38
2022/04/15 00:33:43;;;;;;;;;;;;;;;29.90;21.46;101287.72;5017426;28;882;-37
2022/04/15 00:36:08;;;;;;;;;;;;;;;30.04;21.06;101294.16;5017156;28;879;-38
2022/04/15 00:38:34;;;;;;;;;;;;;;;30.15;20.93;101290.94;5021840;28;1894;-36
2022/04/15 00:40:59;;;;;;;;;;;;;;;29.51;21.58;101293.22;5035892;28;829;-38
2022/04/15 00:43:24;;;;;;;;;;;;;;;29.28;22.17;101285.19;5031290;28;770;-39
2022/04/15 00:45:50;;;;;;;;;;;;;;;29.96;21.36;101280.69;5021019;28;873;-38
2022/04/15 00:48:16;;;;;;;;;;;;;;;30.06;21.19;101289.38;5016919;28;811;-38
2022/04/15 00:50:42;;;;;;;;;;;;;;;30.09;21.22;101283.56;5016534;28;815;-40
2022/04/15 00:53:08;;;;;;;;;;;;;;;30.18;21.31;101278.84;5017006;28;860;-36
2022/04/15 00:55:33;;;;;;;;;;;;;;;30.19;21.10;101283.28;5016898;28;804;-39
2022/04/15 00:58:02;;;;;;;;;;;;;;;29.73;21.50;101281.66;5016445;28;1906;-38
2022/04/15 01:00:28;;;;;;;;;;;;;;;29.50;21.87;101274.41;5019044;28;911;-39
2022/04/15 01:02:53;;;;;;;;;;;;;;;29.22;22.03;101281.31;5016888;28;786;-36
2022/04/15 01:05:19;;;;;;;;;;;;;;;29.94;21.42;101283.59;5015153;28;1176;-36
2022/04/15 01:07:50;;;;;;;;;;;;;;;30.25;20.96;101274.38;5016731;28;802;-37
2022/04/15 01:10:16;;;;;;;;;;;;;;;29.32;22.33;101278.34;5019675;28;837;-38
2022/04/15 01:12:44;;;;;;;;;;;;;;;29.08;22.33;101280.25;5016678;28;1500;-38
2022/04/15 01:15:10;;;;;;;;;;;;;;;29.02;22.72;101271.03;5017211;28;870;-38
2022/04/15 01:17:36;;;;;;;;;;;;;;;28.88;23.05;101271.81;5016688;28;919;-39
2022/04/15 01:20:04;;;;;;;;;;;;;;;28.81;22.80;101272.50;5016841;28;1987;-39
2022/04/15 01:22:36;;;;;;;;;;;;;;;28.71;22.98;101266.53;5024473;28;1234;-37
2022/04/15 01:25:01;;;;;;;;;;;;;;;28.67;22.90;101268.75;5035268;28;785;-37
2022/04/15 01:27:27;;;;;;;;;;;;;;;29.24;22.48;101273.00;5020158;28;1167;-37
2022/04/15 01:29:52;;;;;;;;;;;;;;;29.43;22.15;101272.47;5017260;28;817;-39
2022/04/15 01:32:17;;;;;;;;;;;;;;;29.63;21.85;101269.22;5020996;28;866;-39
2022/04/15 01:34:43;;;;;;;;;;;;;;;30.17;21.13;101266.34;5019410;28;834;-36
2022/04/15 01:37:08;;;;;;;;;;;;;;;30.10;21.13;101265.41;5016608;28;907;-39
2022/04/15 01:39:36;;;;;;;;;;;;;;;30.11;20.96;101261.69;5014394;28;1988;-37
2022/04/15 01:42:02;;;;;;;;;;;;;;;29.52;21.82;101250.69;5015313;28;751;-38
2022/04/15 01:44:27;;;;;;;;;;;;;;;29.24;22.08;101260.31;5016430;28;1049;-38
2022/04/15 01:46:52;;;;;;;;;;;;;;;30.01;21.17;101259.28;5026012;28;963;-37
2022/04/15 01:49:18;;;;;;;;;;;;;;;30.10;21.09;101260.81;5016191;28;969;-38
2022/04/15 01:51:43;;;;;;;;;;;;;;;30.14;21.01;101262.16;5016690;28;814;-39
2022/04/15 01:54:08;;;;;;;;;;;;;;;30.18;20.97;101259.88;5015988;28;865;-38
2022/04/15 01:56:34;;;;;;;;;;;;;;;29.65;21.49;101248.19;5016053;28;751;-39
2022/04/15 01:58:59;;;;;;;;;;;;;;;29.39;21.85;101243.22;5017382;28;1910;-38
2022/04/15 02:01:24;;;;;;;;;;;;;;;29.27;22.30;101243.69;5018865;28;932;-39
2022/04/15 02:03:49;;;;;;;;;;;;;;;29.52;21.86;101239.84;5016625;28;771;-38
2022/04/15 02:06:15;;;;;;;;;;;;;;;30.14;21.22;101235.00;5016292;28;752;-38
2022/04/15 02:08:40;;;;;;;;;;;;;;;29.97;21.12;101234.41;5019408;28;845;-39
2022/04/15 02:11:06;;;;;;;;;;;;;;;29.26;22.65;101233.84;5020003;28;861;-39
2022/04/15 02:13:31;;;;;;;;;;;;;;;29.11;22.58;101233.03;5025328;28;781;-36
2022/04/15 02:15:56;;;;;;;;;;;;;;;28.94;22.56;101227.72;5025416;28;886;-39
2022/04/15 02:18:21;;;;;;;;;;;;;;;28.92;22.90;101222.50;5019507;28;1906;-39
2022/04/15 02:20:47;;;;;;;;;;;;;;;28.80;22.60;101224.81;5019711;28;834;-39
2022/04/15 02:23:12;;;;;;;;;;;;;;;28.71;22.70;101225.91;5019437;28;809;-35
2022/04/15 02:25:37;;;;;;;;;;;;;;;29.01;22.92;101220.56;5022416;28;913;-39
2022/04/15 02:28:03;;;;;;;;;;;;;;;29.27;22.56;101226.56;5038507;28;830;-38
2022/04/15 02:30:28;;;;;;;;;;;;;;;29.43;22.05;101225.53;5037148;28;940;-39
2022/04/15 02:32:53;;;;;;;;;;;;;;;29.99;21.64;101221.50;5019504;28;1413;-39
2022/04/15 02:35:18;;;;;;;;;;;;;;;30.27;21.28;101220.78;5019414;28;1446;-38
2022/04/15 02:37:44;;;;;;;;;;;;;;;30.19;21.35;101216.28;5023179;28;850;-36
2022/04/15 02:40:09;;;;;;;;;;;;;;;30.23;21.31;101216.75;5018624;28;1890;-39
2022/04/15 02:42:35;;;;;;;;;;;;;;;29.75;21.47;101222.66;5019582;28;771;-39
2022/04/15 02:45:01;;;;;;;;;;;;;;;29.40;22.04;101215.06;5021037;28;896;-36
2022/04/15 02:47:26;;;;;;;;;;;;;;;30.01;21.62;101215.88;5018345;28;847;-38
2022/04/15 02:49:51;;;;;;;;;;;;;;;30.08;21.39;101216.75;5017704;28;1141;-39
2022/04/15 02:52:17;;;;;;;;;;;;;;;30.02;21.46;101212.13;5019205;28;849;-38
2022/04/15 02:54:42;;;;;;;;;;;;;;;30.14;21.38;101226.03;5019116;28;866;-39
2022/04/15 02:57:07;;;;;;;;;;;;;;;30.15;21.34;101214.13;5018893;28;842;-39
2022/04/15 02:59:33;;;;;;;;;;;;;;;29.86;21.50;101221.34;5018572;28;1914;-39
2022/04/15 03:01:58;;;;;;;;;;;;;;;29.63;21.92;101220.41;5019416;28;1051;-39
2022/04/15 03:04:23;;;;;;;;;;;;;;;30.21;21.38;101226.13;5022154;28;807;-38
2022/04/15 03:06:49;;;;;;;;;;;;;;;30.17;21.21;101218.34;5019001;28;786;-39
2022/04/15 03:09:14;;;;;;;;;;;;;;;30.12;21.40;101220.78;5018601;28;977;-37
2022/04/15 03:11:40;;;;;;;;;;;;;;;30.19;21.44;101226.28;5018297;28;862;-39
2022/04/15 03:14:05;;;;;;;;;;;;;;;30.22;21.31;101225.94;5018359;28;1494;-39
2022/04/15 03:16:31;;;;;;;;;;;;;;;30.02;21.24;101223.81;5021533;28;1072;-37
2022/04/15 03:18:56;;;;;;;;;;;;;;;29.86;21.64;101224.03;5036829;28;1902;-38
2022/04/15 03:21:21;;;;;;;;;;;;;;;29.87;21.65;101223.00;5035918;28;868;-37
2022/04/15 03:23:47;;;;;;;;;;;;;;;30.42;20.97;101225.28;5037177;28;897;-39
2022/04/15 03:26:12;;;;;;;;;;;;;;;30.02;21.16;101231.97;5036989;28;1001;-39
2022/04/15 03:28:37;;;;;;;;;;;;;;;29.57;21.92;101226.56;5028742;28;1021;-38
2022/04/15 03:31:05;;;;;;;;;;;;;;;29.51;21.87;101228.16;5026216;28;1045;-38
2022/04/15 03:33:30;;;;;;;;;;;;;;;29.36;22.28;101227.34;5037572;28;855;-39
2022/04/15 03:35:56;;;;;;;;;;;;;;;29.81;21.85;101230.88;5037305;28;862;-35
2022/04/15 03:38:21;;;;;;;;;;;;;;;29.94;21.19;101232.91;5037179;28;1989;-38
2022/04/15 03:40:46;;;;;;;;;;;;;;;30.06;19.49;101235.13;5036583;28;846;-37
2022/04/15 03:43:12;;;;;;;;;;;;;;;30.08;19.70;101234.94;5025342;28;825;-38
2022/04/15 03:45:37;;;;;;;;;;;;;;;29.39;19.80;101237.81;5019715;28;899;-39
2022/04/15 03:48:03;;;;;;;;;;;;;;;28.95;20.91;101235.66;5017276;28;1355;-37
2022/04/15 03:50:28;;;;;;;;;;;;;;;28.49;20.79;101233.88;5022928;28;959;-38
2022/04/15 03:52:53;;;;;;;;;;;;;;;27.68;22.13;101230.41;5019453;28;893;-36
2022/04/15 03:55:19;;;;;;;;;;;;;;;27.60;21.85;101236.66;5022582;28;1307;-31
2022/04/15 03:57:45;;;;;;;;;;;;;;;26.41;20.26;101227.97;5028601;28;1198;-36
2022/04/15 04:00:11;;;;;;;;;;;;;;;25.80;20.31;101233.53;5021239;28;1913;-36
2022/04/15 04:02:37;;;;;;;;;;;;;;;25.38;20.07;101230.59;5036500;28;905;-31
2022/04/15 04:05:02;;;;;;;;;;;;;;;25.20;20.47;101233.34;5037068;28;866;-33
2022/04/15 04:07:27;;;;;;;;;;;;;;;25.11;20.20;101223.53;5033881;28;786;-31
2022/04/15 04:09:53;;;;;;;;;;;;;;;25.20;20.16;101225.25;5017307;28;758;-36
2022/04/15 04:12:18;;;;;;;;;;;;;;;25.24;20.54;101223.94;5017340;28;783;-34
2022/04/15 04:14:44;;;;;;;;;;;;;;;24.88;21.55;101222.16;5017573;28;860;-36
2022/04/15 04:17:09;;;;;;;;;;;;;;;23.35;24.04;101226.16;5021578;28;984;-36
2022/04/15 04:19:34;;;;;;;;;;;;;;;24.00;22.05;101223.63;5016862;28;1962;-35
2022/04/15 04:21:59;;;;;;;;;;;;;;;24.04;22.37;101230.41;5017391;28;790;-33
2022/04/15 04:24:25;;;;;;;;;;;;;;;23.82;22.54;101230.63;5017212;28;794;-32
2022/04/15 04:26:50;;;;;;;;;;;;;;;23.73;22.58;101228.84;5022255;28;1022;-32
2022/04/15 04:29:16;;;;;;;;;;;;;;;23.63;22.78;101228.03;5017231;28;811;-36
2022/04/15 04:31:41;;;;;;;;;;;;;;;22.97;24.54;101229.59;5019383;28;943;-35
2022/04/15 04:34:07;;;;;;;;;;;;;;;23.43;22.76;101233.50;5021312;28;809;-34
2022/04/15 04:36:32;;;;;;;;;;;;;;;23.15;23.02;101236.94;5017342;28;813;-35
2022/04/15 04:38:57;;;;;;;;;;;;;;;23.88;23.28;101231.91;5016463;28;1910;-31
2022/04/15 04:41:24;;;;;;;;;;;;;;;24.17;22.58;101228.22;5017565;28;1029;-38
2022/04/15 04:43:50;;;;;;;;;;;;;;;24.13;22.51;101236.69;5016958;28;857;-33
2022/04/15 04:46:15;;;;;;;;;;;;;;;24.27;22.38;101222.81;5018283;28;873;-37
2022/04/15 04:48:41;;;;;;;;;;;;;;;22.67;24.99;101225.25;5016990;28;830;-33
2022/04/15 04:51:06;;;;;;;;;;;;;;;23.73;23.79;101237.78;5025950;28;1116;-36
2022/04/15 04:53:31;;;;;;;;;;;;;;;23.72;24.01;101229.88;5023382;28;1047;-34
2022/04/15 04:55:56;;;;;;;;;;;;;;;23.92;23.46;101235.97;5017488;28;799;-33
2022/04/15 04:58:22;;;;;;;;;;;;;;;24.12;23.50;101238.56;5020399;28;1938;-39
2022/04/15 05:00:47;;;;;;;;;;;;;;;24.65;23.15;101233.41;5022656;28;809;-39
2022/04/15 05:03:12;;;;;;;;;;;;;;;24.93;23.02;101233.34;5016880;28;909;-39
2022/04/15 05:05:38;;;;;;;;;;;;;;;25.05;22.82;101230.38;5016911;28;791;-38
2022/04/15 05:08:03;;;;;;;;;;;;;;;22.84;26.11;101235.25;5016839;28;809;-37
2022/04/15 05:10:28;;;;;;;;;;;;;;;24.44;24.17;101237.22;5022777;28;1176;-35
2022/04/15 05:12:54;;;;;;;;;;;;;;;24.55;23.79;101233.50;5021878;28;893;-38
2022/04/15 05:15:19;;;;;;;;;;;;;;;25.03;23.23;101241.31;5020750;28;841;-34
2022/04/15 05:17:44;;;;;;;;;;;;;;;25.16;23.07;101232.81;5016687;28;857;-38
2022/04/15 05:20:10;;;;;;;;;;;;;;;24.91;23.29;101240.72;5016548;28;1965;-37
2022/04/15 05:22:35;;;;;;;;;;;;;;;25.40;22.96;101243.91;5029080;28;1066;-38
2022/04/15 05:25:00;;;;;;;;;;;;;;;24.17;24.12;101232.75;5031354;28;1211;-39
2022/04/15 05:27:26;;;;;;;;;;;;;;;22.93;26.60;101232.72;5021278;28;1092;-36
2022/04/15 05:29:51;;;;;;;;;;;;;;;24.67;24.17;101233.25;5017112;28;892;-36
2022/04/15 05:32:18;;;;;;;;;;;;;;;24.72;24.11;101233.63;5018213;28;738;-36
2022/04/15 05:34:44;;;;;;;;;;;;;;;24.92;23.86;101234.31;5016758;28;912;-38
2022/04/15 05:37:10;;;;;;;;;;;;;;;25.03;23.49;101235.91;5021687;28;838;-34
2022/04/15 05:39:35;;;;;;;;;;;;;;;25.03;23.75;101232.38;5016490;28;1901;-36
2022/04/15 05:42:00;;;;;;;;;;;;;;;22.80;27.01;101238.38;5018827;28;946;-39
2022/04/15 05:44:26;;;;;;;;;;;;;;;24.34;24.78;101231.06;5022942;28;1203;-36
2022/04/15 05:46:51;;;;;;;;;;;;;;;24.80;23.83;101233.72;5032188;28;1235;-36
2022/04/15 05:49:17;;;;;;;;;;;;;;;25.10;23.07;101228.06;5022107;28;835;-30
2022/04/15 05:51:43;;;;;;;;;;;;;;;22.87;26.64;101229.59;5020036;28;911;-37
2022/04/15 05:54:08;;;;;;;;;;;;;;;23.83;25.75;101231.50;5020477;28;779;-37
2022/04/15 05:56:34;;;;;;;;;;;;;;;24.81;24.21;101232.69;5020611;28;829;-36
2022/04/15 05:58:59;;;;;;;;;;;;;;;25.34;22.97;101239.97;5020214;28;1973;-37
2022/04/15 06:01:24;;;;;;;;;;;;;;;25.40;23.13;101239.38;5026780;28;1208;-41
2022/04/15 06:03:50;;;;;;;;;;;;;;;23.09;26.35;101237.47;5024616;28;1023;-36
2022/04/15 06:06:15;;;;;;;;;;;;;;;24.77;24.84;101239.41;5027718;28;1395;-37
2022/04/15 06:08:40;;;;;;;;;;;;;;;25.32;23.03;101233.94;5031959;28;814;-32
2022/04/15 06:11:06;;;;;;;;;;;;;;;25.80;22.94;101242.47;5032710;28;759;-36
2022/04/15 06:13:31;;;;;;;;;;;;;;;23.07;26.25;101237.63;5038955;28;757;-37
2022/04/15 06:15:58;;;;;;;;;;;;;;;24.21;25.18;101242.19;5029743;28;850;-37
2022/04/15 06:18:23;;;;;;;;;;;;;;;25.21;23.85;101242.28;5019911;28;1902;-38
2022/04/15 06:20:49;;;;;;;;;;;;;;;22.92;26.66;101242.59;5020208;28;766;-36
2022/04/15 06:23:14;;;;;;;;;;;;;;;24.24;25.32;101241.91;5019622;28;1045;-39
2022/04/15 06:25:40;;;;;;;;;;;;;;;25.13;23.83;101240.34;5034418;28;1341;-33
2022/04/15 06:28:06;;;;;;;;;;;;;;;22.84;26.80;101248.69;5025583;28;927;-32
2022/04/15 06:30:31;;;;;;;;;;;;;;;24.01;25.87;101239.59;5023155;28;999;-36
2022/04/15 06:32:56;;;;;;;;;;;;;;;24.97;24.30;101244.63;5030724;28;1243;-35
2022/04/15 06:35:22;;;;;;;;;;;;;;;22.96;26.92;101240.47;5025201;28;1162;-30
2022/04/15 06:37:47;;;;;;;;;;;;;;;23.88;26.18;101239.97;5027571;28;742;-41
2022/04/15 06:40:12;;;;;;;;;;;;;;;24.87;24.24;101236.63;5025721;28;1989;-39
2022/04/15 06:42:37;;;;;;;;;;;;;;;25.29;23.65;101234.25;5028716;28;1055;-38
2022/04/15 06:45:03;;;;;;;;;;;;;;;24.56;24.29;101243.25;5035983;28;1294;-32
2022/04/15 06:47:28;;;;;;;;;;;;;;;23.27;26.93;101242.97;5023302;28;763;-34
2022/04/15 06:49:53;;;;;;;;;;;;;;;24.82;24.59;101245.13;5023948;28;1092;-38
2022/04/15 06:52:19;;;;;;;;;;;;;;;24.37;24.14;101241.56;5022253;28;810;-37
2022/04/15 06:54:44;;;;;;;;;;;;;;;23.29;26.98;101248.22;5022476;28;900;-38
2022/04/15 06:57:09;;;;;;;;;;;;;;;24.98;24.42;101248.16;5019293;28;1480;-37
2022/04/15 06:59:35;;;;;;;;;;;;;;;25.25;24.02;101252.56;5033488;28;1965;-39
2022/04/15 07:02:01;;;;;;;;;;;;;;;25.27;22.66;101242.50;5022695;28;990;-39
2022/04/15 07:04:27;;;;;;;;;;;;;;;23.42;26.66;101248.75;5034653;28;1104;-37
2022/04/15 07:06:53;;;;;;;;;;;;;;;25.03;24.58;101248.53;5027105;28;968;-39
2022/04/15 07:09:18;;;;;;;;;;;;;;;24.97;23.04;101250.00;5019100;28;820;-39
2022/04/15 07:11:43;;;;;;;;;;;;;;;23.35;26.92;101253.00;5019060;28;833;-39
2022/04/15 07:14:09;;;;;;;;;;;;;;;25.01;24.45;101247.84;5017271;28;897;-39
2022/04/15 07:16:37;;;;;;;;;;;;;;;24.62;23.63;101249.84;5023931;28;888;-39
2022/04/15 07:19:04;;;;;;;;;;;;;;;23.28;27.13;101249.19;5024088;28;1969;-38
2022/04/15 07:21:35;;;;;;;;;;;;;;;24.96;24.49;101244.78;5018384;28;886;-39
2022/04/15 07:24:00;;;;;;;;;;;;;;;23.84;25.18;101242.09;5033278;28;1161;-37
2022/04/15 07:26:26;;;;;;;;;;;;;;;23.52;26.71;101251.44;5029241;28;1108;-35
2022/04/15 07:28:51;;;;;;;;;;;;;;;24.91;24.47;101246.09;5036645;28;1219;-39
2022/04/15 07:31:16;;;;;;;;;;;;;;;23.83;25.50;101240.41;5027518;28;1530;-38
2022/04/15 07:33:42;;;;;;;;;;;;;;;23.09;27.34;101243.72;5021450;28;789;-38
2022/04/15 07:36:31;;;;;;;;;;;;;;;24.90;25.09;101247.09;5018954;28;769;-37
2022/04/15 07:38:52;;;;;;;;;;;;;;;23.36;27.48;101243.94;5018185;28;1910;-38
2022/04/15 07:41:17;;;;;;;;;;;;;;;23.63;26.93;101246.84;5018771;28;904;-39
2022/04/15 07:43:43;;;;;;;;;;;;;;;25.14;24.83;101236.69;5027827;28;1259;-33
2022/04/15 07:46:08;;;;;;;;;;;;;;;22.98;28.05;101231.31;5032442;28;1306;-34
2022/04/15 07:48:33;;;;;;;;;;;;;;;24.23;25.93;101231.28;5037285;28;834;-34
2022/04/15 07:50:59;;;;;;;;;;;;;;;25.26;24.67;101234.53;5036505;28;1171;-37
2022/04/15 07:53:24;;;;;;;;;;;;;;;22.90;28.01;101233.00;5036003;28;1406;-35
2022/04/15 07:55:50;;;;;;;;;;;;;;;24.41;26.00;101232.16;5037246;28;735;-37
2022/04/15 07:58:15;;;;;;;;;;;;;;;25.36;24.46;101229.91;5033667;28;1965;-37
2022/04/15 08:00:42;;;;;;;;;;;;;;;22.93;27.69;101230.88;5029932;28;836;-35
2022/04/15 08:03:08;;;;;;;;;;;;;;;24.62;25.57;101231.03;5024566;28;901;-39
2022/04/15 08:05:33;;;;;;;;;;;;;;;25.38;24.45;101229.75;5016738;28;886;-40
2022/04/15 08:07:58;;;;;;;;;;;;;;;22.42;28.54;101228.28;5024230;28;734;-39
2022/04/15 08:10:24;;;;;;;;;;;;;;;24.51;25.72;101224.03;5022594;28;834;-37
2022/04/15 08:12:49;;;;;;;;;;;;;;;25.24;24.41;101212.34;5017741;28;837;-38
2022/04/15 08:15:14;;;;;;;;;;;;;;;22.42;28.33;101222.94;5021257;28;873;-36
2022/04/15 08:17:40;;;;;;;;;;;;;;;24.24;26.17;101214.19;5018377;28;857;-39
2022/04/15 08:20:06;;;;;;;;;;;;;;;25.27;24.30;101220.09;5020989;28;1898;-38
2022/04/15 08:22:35;;;;;;;;;;;;;;;22.60;28.10;101207.06;5032959;28;1124;-36
2022/04/15 08:25:00;;;;;;;;;;;;;;;24.26;26.08;101202.28;5024985;28;1242;-39
2022/04/15 08:27:26;;;;;;;;;;;;;;;25.12;24.64;101204.53;5022459;28;1006;-41
2022/04/15 08:29:51;;;;;;;;;;;;;;;23.28;27.15;101204.41;5018074;28;871;-38
2022/04/15 08:32:16;;;;;;;;;;;;;;;25.33;24.59;101194.38;5024179;28;1127;-39
2022/04/15 08:34:42;;;;;;;;;;;;;;;26.12;23.08;101194.19;5027710;28;1259;-35
2022/04/15 08:37:07;;;;;;;;;;;;;;;26.36;22.84;101191.75;5020631;28;892;-36
2022/04/15 08:39:33;;;;;;;;;;;;;;;26.51;22.92;101205.38;5016942;28;1914;-40
2022/04/15 08:41:58;;;;;;;;;;;;;;;26.60;22.75;101193.59;5017265;28;810;-41
2022/04/15 08:44:24;;;;;;;;;;;;;;;26.73;22.59;101189.53;5019056;28;1101;-39
2022/04/15 08:46:49;;;;;;;;;;;;;;;26.82;22.21;101193.94;5026460;28;1051;-37
2022/04/15 08:49:19;;;;;;;;;;;;;;;26.83;22.56;101189.34;5026564;28;991;-37
2022/04/15 08:51:44;;;;;;;;;;;;;;;27.07;22.13;101183.13;5031731;28;1465;-39
2022/04/15 08:54:10;;;;;;;;;;;;;;;27.02;21.85;101183.66;5023268;28;1108;-39
2022/04/15 08:56:35;;;;;;;;;;;;;;;27.18;22.07;101183.75;5016938;28;862;-40
2022/04/15 08:59:00;;;;;;;;;;;;;;;27.25;21.48;101179.34;5016908;28;1953;-39
2022/04/15 09:01:26;;;;;;;;;;;;;;;27.33;21.57;101173.91;5022160;28;821;-40
2022/04/15 09:03:51;;;;;;;;;;;;;;;27.19;21.48;101169.25;5017601;28;835;-40
2022/04/15 09:06:16;;;;;;;;;;;;;;;27.09;21.48;101167.56;5019247;28;1240;-39
2022/04/15 09:08:57;;;;;;;;;;;;;;;27.12;21.43;101153.75;5016960;28;979;-38
2022/04/15 09:11:24;;;;;;;;;;;;;;;27.17;21.03;101155.91;5031298;28;857;-36
2022/04/15 09:13:51;;;;;;;;;;;;;;;27.02;21.08;101153.09;5032800;28;790;-40
2022/04/15 09:16:17;;;;;;;;;;;;;;;26.90;21.15;101148.03;5022169;28;881;-31
2022/04/15 09:18:42;;;;;;;;;;;;;;;26.64;21.52;101149.06;5021081;28;1947;-38
2022/04/15 09:21:14;;;;;;;;;;;;;;;26.50;21.76;101145.22;5021148;28;788;-38
2022/04/15 09:23:39;;;;;;;;;;;;;;;26.79;21.58;101140.28;5022789;28;1085;-39
2022/04/15 09:26:05;;;;;;;;;;;;;;;26.92;21.06;101144.31;5033575;28;1089;-37
2022/04/15 09:28:34;;;;;;;;;;;;;;;26.90;21.21;101145.34;5020972;28;1052;-38
2022/04/15 09:30:59;;;;;;;;;;;;;;;26.85;21.83;101145.00;5022503;28;857;-39
2022/04/15 09:33:25;;;;;;;;;;;;;;;26.95;21.66;101142.09;5020770;28;781;-37
2022/04/15 09:35:54;;;;;;;;;;;;;;;26.91;22.25;101135.34;5020561;28;831;-38
2022/04/15 09:38:19;;;;;;;;;;;;;;;26.91;22.18;101135.34;5020708;28;1914;-38
2022/04/15 09:40:44;;;;;;;;;;;;;;;26.92;22.55;101144.31;5025694;28;901;-39
2022/04/15 09:43:10;;;;;;;;;;;;;;;26.97;22.19;101136.53;5020298;28;900;-39
2022/04/15 09:45:35;;;;;;;;;;;;;;;27.00;22.27;101137.03;5019295;28;1232;-38
2022/04/15 09:48:04;;;;;;;;;;;;;;;26.97;22.31;101134.69;5038770;28;1100;-38
2022/04/15 09:50:34;;;;;;;;;;;;;;;27.43;22.34;101133.19;5037777;28;1342;-41
2022/04/15 09:53:07;;;;;;;;;;;;;;;27.66;21.95;101132.41;5037613;28;1096;-41
2022/04/15 09:55:32;;;;;;;;;;;;;;;27.49;22.10;101124.38;5026050;28;1242;-37
2022/04/15 09:57:57;;;;;;;;;;;;;;;27.52;21.94;101125.91;5019055;28;1157;-39
2022/04/15 10:00:23;;;;;;;;;;;;;;;27.53;22.23;101124.03;5027473;28;1894;-43
2022/04/15 10:02:49;;;;;;;;;;;;;;;27.62;21.95;101123.81;5035916;28;1112;-43
2022/04/15 10:05:15;;;;;;;;;;;;;;;27.73;22.41;101113.63;5032293;28;1116;-41
2022/04/15 10:07:40;;;;;;;;;;;;;;;27.61;22.03;101118.59;5037693;28;1074;-39
2022/04/15 10:10:06;;;;;;;;;;;;;;;27.44;22.64;101115.13;5031511;28;1052;-33
2022/04/15 10:12:35;;;;;;;;;;;;;;;27.52;22.55;101120.50;5018704;28;1269;-33
2022/04/15 10:15:01;;;;;;;;;;;;;;;27.36;22.39;101108.72;5020834;28;900;-35
2022/04/15 10:17:27;;;;;;;;;;;;;;;27.16;23.02;101116.41;5024466;28;1120;-30
2022/04/15 10:19:52;;;;;;;;;;;;;;;27.25;22.96;101101.88;5034210;28;1890;-36
2022/04/15 10:22:17;;;;;;;;;;;;;;;27.15;22.99;101093.13;5024369;28;806;-36
2022/04/15 10:24:42;;;;;;;;;;;;;;;27.06;23.03;101099.59;5021803;28;1134;-36
2022/04/15 10:27:08;;;;;;;;;;;;;;;27.01;23.10;101091.97;5026805;28;1379;-35
2022/04/15 10:29:33;;;;;;;;;;;;;;;27.05;22.87;101087.94;5024734;28;1288;-34
2022/04/15 10:32:10;;;;;;;;;;;;;;;27.02;23.26;101089.16;5022941;28;905;-33
2022/04/15 10:34:46;;;;;;;;;;;;;;;27.02;23.04;101093.69;5019571;28;783;-35
2022/04/15 10:37:11;;;;;;;;;;;;;;;27.00;22.97;101090.28;5019289;28;974;-33
2022/04/15 10:39:47;;;;;;;;;;;;;;;27.05;23.14;101085.25;5019102;28;1906;-34
2022/04/15 10:42:22;;;;;;;;;;;;;;;27.05;23.11;101081.69;5019787;28;931;-33
2022/04/15 10:44:48;;;;;;;;;;;;;;;26.97;23.24;101082.53;5018698;28;798;-35
2022/04/15 10:47:19;;;;;;;;;;;;;;;27.00;23.59;101074.94;5023720;28;834;-34
2022/04/15 10:49:54;;;;;;;;;;;;;;;26.94;23.42;101072.94;5019171;28;866;-37
2022/04/15 10:52:24;;;;;;;;;;;;;;;26.92;23.37;101074.13;5019130;28;869;-34
2022/04/15 10:55:08;;;;;;;;;;;;;;;26.88;23.42;101062.81;5018887;28;818;-36
2022/04/15 10:57:34;;;;;;;;;;;;;;;27.00;23.37;101060.59;5019349;28;810;-36
2022/04/15 11:02:48;;;;;;;;;;;;;;;27.09;23.06;101064.97;5019312;28;711;-34
2022/04/15 11:05:15;;;;;;;;;;;;;;;27.09;23.38;101061.44;5037952;28;937;-34
2022/04/15 11:07:48;;;;;;;;;;;;;;;27.11;23.39;101054.00;5037979;28;836;-36
2022/04/15 11:10:17;;;;;;;;;;;;;;;27.10;23.54;101047.75;5018856;28;867;-37
2022/04/15 11:12:43;;;;;;;;;;;;;;;27.20;23.33;101052.94;5030947;28;1307;-35
2022/04/15 11:15:09;;;;;;;;;;;;;;;27.22;23.27;101055.47;5036214;28;1298;-35
2022/04/15 11:17:44;;;;;;;;;;;;;;;27.13;23.47;101050.09;5028497;28;1242;-35
2022/04/15 11:20:09;;;;;;;;;;;;;;;27.13;23.53;101052.81;5025154;28;1973;-34
2022/04/15 11:22:41;;;;;;;;;;;;;;;27.15;23.59;101041.81;5037040;28;1294;-33
2022/04/15 11:25:07;;;;;;;;;;;;;;;27.14;23.16;101045.56;5025388;28;1009;-36
2022/04/15 11:27:34;;;;;;;;;;;;;;;27.09;23.70;101042.53;5024370;28;1136;-34
2022/04/15 11:30:03;;;;;;;;;;;;;;;27.14;23.49;101037.44;5022989;28;885;-36
2022/04/15 11:32:28;;;;;;;;;;;;;;;27.10;23.65;101036.09;5021228;28;1139;-36
2022/04/15 11:34:54;;;;;;;;;;;;;;;27.31;23.14;101037.38;5029669;28;855;-34
2022/04/15 11:37:20;;;;;;;;;;;;;;;27.31;23.33;101026.56;5018522;28;821;-34
2022/04/15 11:39:47;;;;;;;;;;;;;;;26.83;23.92;101032.81;5017728;28;1907;-32
2022/04/15 11:42:12;;;;;;;;;;;;;;;26.89;23.71;101024.84;5025688;28;1190;-34
2022/04/15 11:44:38;;;;;;;;;;;;;;;26.80;24.00;101020.50;5016714;28;1156;-35
2022/04/15 11:47:25;;;;;;;;;;;;;;;26.82;23.87;101015.78;5026124;28;822;-37
2022/04/15 11:49:53;;;;;;;;;;;;;;;26.76;24.00;101011.91;5018372;28;834;-38
2022/04/15 11:52:26;;;;;;;;;;;;;;;26.67;24.08;101020.22;5018007;28;850;-39
2022/04/15 11:54:51;;;;;;;;;;;;;;;26.58;23.75;101011.28;5018021;28;862;-40
2022/04/15 11:57:16;;;;;;;;;;;;;;;26.41;23.29;101011.34;5027039;28;830;-38
2022/04/15 11:59:45;;;;;;;;;;;;;;;26.36;23.13;101009.16;5034325;28;1965;-37
2022/04/15 12:02:11;;;;;;;;;;;;;;;26.39;22.59;101008.00;5021321;28;889;-37
2022/04/15 12:04:36;;;;;;;;;;;;;;;26.24;22.18;101007.81;5018625;28;758;-38
2022/04/15 12:07:02;;;;;;;;;;;;;;;26.27;22.34;101005.63;5017621;28;933;-41
2022/04/15 12:09:27;;;;;;;;;;;;;;;26.36;22.51;100997.56;5017448;28;877;-38
2022/04/15 12:11:52;;;;;;;;;;;;;;;26.69;22.87;100989.38;5019393;28;801;-40
2022/04/15 12:14:18;;;;;;;;;;;;;;;26.89;22.52;100997.03;5017877;28;786;-40
2022/04/15 12:16:44;;;;;;;;;;;;;;;26.99;22.47;100992.25;5030762;28;1069;-39
2022/04/15 12:19:09;;;;;;;;;;;;;;;26.90;22.66;100990.63;5029050;28;1960;-39
2022/04/15 12:21:35;;;;;;;;;;;;;;;26.93;22.63;100995.66;5033565;28;1315;-41
2022/04/15 12:24:00;;;;;;;;;;;;;;;26.95;22.83;100988.22;5021360;28;849;-41
2022/04/15 12:26:25;;;;;;;;;;;;;;;27.06;22.69;100991.59;5029086;28;978;-40
2022/04/15 12:31:34;;;;;;;;;;;;;;;26.92;22.90;100982.34;5031448;28;1165;-40
2022/04/15 12:34:00;;;;;;;;;;;;;;;26.86;22.97;100981.19;5032081;28;1172;-40
2022/04/15 12:36:25;;;;;;;;;;;;;;;26.85;23.10;100979.50;5033302;28;1215;-40
2022/04/15 12:39:00;;;;;;;;;;;;;;;26.87;23.21;100977.47;5032476;28;1965;-41
2022/04/15 12:41:35;;;;;;;;;;;;;;;26.94;23.24;100981.16;5022578;28;815;-41
2022/04/15 12:44:10;;;;;;;;;;;;;;;26.75;23.33;100982.41;5031123;28;1097;-42
2022/04/15 12:46:36;;;;;;;;;;;;;;;26.97;22.82;100975.41;5024908;28;1220;-41
2022/04/15 12:49:01;;;;;;;;;;;;;;;27.13;22.71;100965.53;5015881;28;865;-40
2022/04/15 12:51:35;;;;;;;;;;;;;;;26.85;23.26;100955.19;5019691;28;869;-40
2022/04/15 12:54:05;;;;;;;;;;;;;;;26.78;23.50;100961.31;5032231;28;1295;-40